Time;durP1;ratioP1;P1;durP2;ratioP2;P2;SDS_P1;SDS_P2;PMS_P1;PMS_P2;Temp;Humidity;BMP_temperature;BMP_pressure;BME280_temperature;BME280_humidity;BME280_pressure;Samples;Min_cycle;Max_cycle;Signal;HPM_P1;HPM_P2
2021/11/09 00:01:56;;;;;;;1999.90;999.90;;;6.40;99.90;;;;;;5053339;28;20755;-68
2021/11/09 00:04:25;;;;;;;1999.90;999.90;;;6.40;99.90;;;;;;5053499;28;20482;-68
2021/11/09 00:09:59;;;;;;;1999.90;999.90;;;6.40;99.90;;;;;;5010996;28;20478;-68
2021/11/09 00:12:40;;;;;;;1999.90;999.90;;;6.50;99.90;;;;;;5046902;28;20421;-68
2021/11/09 00:15:09;;;;;;;1999.90;999.90;;;6.40;99.90;;;;;;5053183;28;20446;-68
2021/11/09 00:17:36;;;;;;;1999.90;999.90;;;6.40;99.90;;;;;;5052121;28;20926;-68
2021/11/09 00:20:04;;;;;;;1999.90;999.90;;;6.40;99.90;;;;;;5052800;28;20423;-68
2021/11/09 00:22:30;;;;;;;1999.90;999.90;;;6.30;99.90;;;;;;5052643;28;20409;-68
2021/11/09 00:24:55;;;;;;;1999.90;999.90;;;6.30;99.90;;;;;;5052958;28;20860;-68
2021/11/09 00:27:21;;;;;;;1999.90;999.90;;;6.20;99.90;;;;;;5052803;28;20179;-68
2021/11/09 00:29:47;;;;;;;1999.90;999.90;;;6.20;99.90;;;;;;5052768;28;20192;-68
2021/11/09 00:32:15;;;;;;;1999.90;999.90;;;6.10;99.90;;;;;;5052993;28;20178;-68
2021/11/09 00:34:41;;;;;;;1999.90;999.90;;;6.10;99.90;;;;;;5052791;28;20430;-68
2021/11/09 00:37:07;;;;;;;1999.90;999.90;;;6.10;99.90;;;;;;5052725;28;20416;-68
2021/11/09 00:39:34;;;;;;;1999.90;999.90;;;6.10;99.90;;;;;;5052377;28;20923;-68
2021/11/09 00:42:00;;;;;;;1999.90;999.90;;;6.10;99.90;;;;;;5052666;28;20202;-68
2021/11/09 00:44:26;;;;;;;1999.90;999.90;;;6.10;99.90;;;;;;5052669;28;20405;-68
2021/11/09 00:46:52;;;;;;;1999.90;999.90;;;6.10;99.90;;;;;;5052459;28;20448;-69
2021/11/09 00:49:19;;;;;;;1999.90;999.90;;;6.20;99.90;;;;;;5052244;28;20433;-68
2021/11/09 00:51:47;;;;;;;1999.90;999.90;;;6.10;99.90;;;;;;5052452;28;20780;-68
2021/11/09 00:54:13;;;;;;;1999.90;999.90;;;6.10;99.90;;;;;;5052435;28;20468;-68
2021/11/09 00:56:40;;;;;;;1999.90;999.90;;;6.10;99.90;;;;;;5052361;28;20413;-69
2021/11/09 00:59:06;;;;;;;1999.90;999.90;;;6.00;99.90;;;;;;5051881;28;20425;-69
2021/11/09 01:01:32;;;;;;;1999.90;999.90;;;5.90;99.90;;;;;;5052013;28;20398;-69
2021/11/09 01:03:58;;;;;;;1999.90;999.90;;;5.90;99.90;;;;;;5052259;28;20417;-68
2021/11/09 01:06:24;;;;;;;1999.90;999.90;;;5.80;99.90;;;;;;5052353;28;20413;-68
2021/11/09 01:08:50;;;;;;;1999.90;999.90;;;5.80;99.90;;;;;;5051808;28;20453;-68
2021/11/09 01:11:16;;;;;;;1999.90;999.90;;;5.70;99.90;;;;;;5052306;28;20409;-68
2021/11/09 01:13:42;;;;;;;1999.90;999.90;;;5.60;99.90;;;;;;5052242;28;20968;-68
2021/11/09 01:16:07;;;;;;;1999.90;999.90;;;5.60;99.90;;;;;;5052497;28;20410;-68
2021/11/09 01:18:49;;;;;;;1999.90;999.90;;;5.50;99.90;;;;;;5052116;28;20183;-69
2021/11/09 01:21:17;;;;;;;1999.90;999.90;;;5.50;99.90;;;;;;5052308;28;20175;-68
2021/11/09 01:23:45;;;;;;;1999.90;999.90;;;5.50;99.90;;;;;;5052112;28;20405;-68
2021/11/09 01:26:11;;;;;;;1999.90;999.90;;;5.50;99.90;;;;;;5052109;28;20815;-68
2021/11/09 01:28:38;;;;;;;1999.90;999.90;;;5.50;99.90;;;;;;5051993;28;20418;-68
2021/11/09 01:31:06;;;;;;;1999.90;999.90;;;5.60;99.90;;;;;;5052029;28;20402;-68
2021/11/09 01:33:32;;;;;;;1999.90;999.90;;;5.50;99.90;;;;;;5052392;28;20417;-68
2021/11/09 01:35:58;;;;;;;1999.90;999.90;;;5.50;99.90;;;;;;5056214;28;20452;-68
2021/11/09 01:38:24;;;;;;;1999.90;999.90;;;5.40;99.90;;;;;;5055966;28;20430;-68
2021/11/09 01:40:50;;;;;;;1999.90;999.90;;;5.40;99.90;;;;;;5055690;28;20410;-68
2021/11/09 01:43:17;;;;;;;1999.90;999.90;;;5.30;99.90;;;;;;5055888;28;20487;-69
2021/11/09 01:45:45;;;;;;;1999.90;999.90;;;5.40;99.90;;;;;;5056013;28;20986;-68
2021/11/09 01:48:12;;;;;;;1999.90;999.90;;;5.40;99.90;;;;;;5055942;28;20429;-68
2021/11/09 01:50:41;;;;;;;1999.90;999.90;;;5.40;99.90;;;;;;5055367;28;20899;-69
2021/11/09 01:53:07;;;;;;;1999.90;999.90;;;5.40;99.90;;;;;;5055735;28;20447;-68
2021/11/09 01:55:34;;;;;;;1999.90;999.90;;;5.40;99.90;;;;;;5055704;28;20921;-68
2021/11/09 01:58:00;;;;;;;1999.90;999.90;;;5.30;99.90;;;;;;5055658;28;20421;-68
2021/11/09 02:01:03;;;;;;;1999.90;999.90;;;5.30;99.90;;;;;;5055536;28;20410;-68
2021/11/09 02:03:29;;;;;;;1999.90;999.90;;;5.30;99.90;;;;;;5038253;28;20422;-68
2021/11/09 02:05:55;;;;;;;1999.90;999.90;;;5.30;99.90;;;;;;5055571;28;20848;-68
2021/11/09 02:08:24;;;;;;;1999.90;999.90;;;5.30;99.90;;;;;;5055290;28;20810;-68
2021/11/09 02:10:50;;;;;;;1999.90;999.90;;;5.30;99.90;;;;;;5055186;28;20421;-68
2021/11/09 02:13:17;;;;;;;1999.90;999.90;;;5.30;99.90;;;;;;5055244;28;20824;-68
2021/11/09 02:15:44;;;;;;;1999.90;999.90;;;5.30;99.90;;;;;;5055275;28;20587;-68
2021/11/09 02:18:12;;;;;;;1999.90;999.90;;;5.30;99.90;;;;;;5055249;28;20430;-68
2021/11/09 02:20:37;;;;;;;1999.90;999.90;;;5.30;99.90;;;;;;5055137;28;20468;-68
2021/11/09 02:23:04;;;;;;;1999.90;999.90;;;5.20;99.90;;;;;;5055316;28;20398;-68
2021/11/09 02:25:31;;;;;;;1999.90;999.90;;;5.20;99.90;;;;;;5055140;28;20417;-68
2021/11/09 02:27:59;;;;;;;1999.90;999.90;;;5.20;99.90;;;;;;5055065;28;20633;-68
2021/11/09 02:30:26;;;;;;;1999.90;999.90;;;5.20;99.90;;;;;;5054803;28;20415;-68
2021/11/09 02:32:53;;;;;;;1999.90;999.90;;;5.20;99.90;;;;;;5055045;28;20420;-68
2021/11/09 02:35:22;;;;;;;1999.90;999.90;;;5.20;99.90;;;;;;5055025;28;20445;-68
2021/11/09 02:37:49;;;;;;;1999.90;999.90;;;5.20;99.90;;;;;;5054948;28;20774;-68
2021/11/09 02:40:15;;;;;;;1999.90;999.90;;;5.10;99.90;;;;;;5054775;28;20960;-68
2021/11/09 02:42:47;;;;;;;1999.90;999.90;;;5.10;99.90;;;;;;5054799;28;20430;-68
2021/11/09 02:45:18;;;;;;;1999.90;999.90;;;5.00;99.90;;;;;;5054797;28;20424;-68
2021/11/09 02:47:58;;;;;;;1999.90;999.90;;;5.10;99.90;;;;;;5054707;28;20489;-68
2021/11/09 02:50:29;;;;;;;1999.90;999.90;;;5.00;99.90;;;;;;5054521;28;20402;-68
2021/11/09 02:53:02;;;;;;;1999.90;999.90;;;5.00;99.90;;;;;;5054701;28;20402;-68
2021/11/09 02:55:36;;;;;;;1999.90;999.90;;;4.90;99.90;;;;;;5054469;28;20460;-68
2021/11/09 02:58:25;;;;;;;1999.90;999.90;;;4.90;99.90;;;;;;5054540;28;20887;-68
2021/11/09 03:03:30;;;;;;;1999.90;999.90;;;5.00;99.90;;;;;;5054664;28;20399;-68
2021/11/09 03:06:13;;;;;;;1999.90;999.90;;;5.00;99.90;;;;;;5054392;28;20408;-68
2021/11/09 03:08:47;;;;;;;1999.90;999.90;;;4.80;99.90;;;;;;5053880;28;20445;-68
2021/11/09 03:11:13;;;;;;;1999.90;999.90;;;4.70;99.90;;;;;;5054221;28;20414;-68
2021/11/09 03:13:43;;;;;;;1999.90;999.90;;;4.70;99.90;;;;;;5053971;28;20406;-68
2021/11/09 03:16:11;;;;;;;1999.90;999.90;;;4.70;99.90;;;;;;5054103;28;20406;-69
2021/11/09 03:18:55;;;;;;;1999.90;999.90;;;4.70;99.90;;;;;;5054053;28;20418;-67
2021/11/09 03:45:35;;;;;;;1999.90;999.90;;;4.70;99.90;;;;;;5053691;28;20263;-69
2021/11/09 03:48:07;;;;;;;1999.90;999.90;;;4.70;99.90;;;;;;5053558;28;20505;-69
2021/11/09 03:50:34;;;;;;;1999.90;999.90;;;4.70;99.90;;;;;;5053309;28;20187;-68
2021/11/09 03:53:05;;;;;;;1999.90;999.90;;;4.80;99.90;;;;;;5053344;28;20455;-69
2021/11/09 04:03:01;;;;;;;1999.90;999.90;;;4.60;99.90;;;;;;5053200;28;20489;-68
2021/11/09 04:05:34;;;;;;;1999.90;999.90;;;4.50;99.90;;;;;;5053256;28;20786;-69
2021/11/09 04:08:26;;;;;;;1999.90;999.90;;;4.50;99.90;;;;;;5053147;28;20379;-68
2021/11/09 04:21:34;;;;;;;1999.90;999.90;;;4.50;99.90;;;;;;5052730;28;20509;-69
2021/11/09 04:24:08;;;;;;;1999.90;999.90;;;4.50;99.90;;;;;;5052160;28;20418;-68
2021/11/09 05:09:39;;;;;;;1999.90;999.90;;;4.20;99.90;;;;;;5050863;28;20449;-68
2021/11/09 05:12:06;;;;;;;1999.90;999.90;;;4.20;99.90;;;;;;5051987;28;20403;-68
2021/11/09 05:14:32;;;;;;;1999.90;999.90;;;4.20;99.90;;;;;;5051821;28;20448;-68
2021/11/09 05:16:58;;;;;;;1999.90;999.90;;;4.20;99.90;;;;;;5051922;28;20830;-69
2021/11/09 05:19:25;;;;;;;1999.90;999.90;;;4.20;99.90;;;;;;5051607;28;20607;-68
2021/11/09 05:21:50;;;;;;;1999.90;999.90;;;4.30;99.90;;;;;;5051894;28;20899;-69
2021/11/09 05:24:16;;;;;;;1999.90;999.90;;;4.30;99.90;;;;;;5051830;28;20509;-68
2021/11/09 05:26:42;;;;;;;1999.90;999.90;;;4.30;99.90;;;;;;5051820;28;20174;-69
2021/11/09 05:29:09;;;;;;;1999.90;999.90;;;4.30;99.90;;;;;;5051519;28;20187;-68
2021/11/09 05:31:35;;;;;;;1999.90;999.90;;;4.20;99.90;;;;;;5051793;28;20398;-68
2021/11/09 05:34:01;;;;;;;1999.90;999.90;;;4.30;99.90;;;;;;5051814;28;20421;-68
2021/11/09 05:36:32;;;;;;;1999.90;999.90;;;4.30;99.90;;;;;;5051791;28;20167;-68
2021/11/09 05:39:08;;;;;;;1999.90;999.90;;;4.30;99.90;;;;;;5051531;28;20430;-68
2021/11/09 05:41:37;;;;;;;1999.90;999.90;;;4.30;99.90;;;;;;5051801;28;20402;-68
2021/11/09 05:44:03;;;;;;;1999.90;999.90;;;4.40;99.90;;;;;;5051671;28;20895;-68
2021/11/09 05:46:29;;;;;;;1999.90;999.90;;;4.40;99.90;;;;;;5051622;28;20246;-68
2021/11/09 05:48:54;;;;;;;1999.90;999.90;;;4.40;99.90;;;;;;5051300;28;20939;-68
2021/11/09 05:51:20;;;;;;;1999.90;999.90;;;4.30;99.90;;;;;;5051669;28;20183;-68
2021/11/09 05:53:47;;;;;;;1999.90;999.90;;;4.30;99.90;;;;;;5051552;28;20183;-68
2021/11/09 05:56:13;;;;;;;1999.90;999.90;;;4.30;99.90;;;;;;5051404;28;20445;-68
2021/11/09 05:58:38;;;;;;;1999.90;999.90;;;4.20;99.90;;;;;;5051471;28;20514;-68
2021/11/09 06:01:04;;;;;;;1999.90;999.90;;;4.20;99.90;;;;;;5051314;28;20451;-68
2021/11/09 06:03:29;;;;;;;1999.90;999.90;;;4.20;99.90;;;;;;5051449;28;20168;-68
2021/11/09 06:05:55;;;;;;;1999.90;999.90;;;4.30;99.90;;;;;;5051406;28;20524;-68
2021/11/09 06:08:22;;;;;;;1999.90;999.90;;;4.30;99.90;;;;;;5051215;28;20629;-68
2021/11/09 06:10:48;;;;;;;1999.90;999.90;;;4.30;99.90;;;;;;5051024;28;20755;-68
2021/11/09 06:13:14;;;;;;;1999.90;999.90;;;4.30;99.90;;;;;;5051604;28;20483;-68
2021/11/09 06:15:40;;;;;;;1999.90;999.90;;;4.30;99.90;;;;;;5051302;28;20507;-68
2021/11/09 06:18:06;;;;;;;1999.90;999.90;;;4.30;99.90;;;;;;5051244;28;20430;-68
2021/11/09 06:20:33;;;;;;;1999.90;999.90;;;4.30;99.90;;;;;;5052977;28;20414;-68
2021/11/09 06:22:59;;;;;;;1999.90;999.90;;;4.30;99.90;;;;;;5055072;28;20504;-69
2021/11/09 06:25:24;;;;;;;1999.90;999.90;;;4.30;99.90;;;;;;5054978;28;20489;-68
2021/11/09 06:27:51;;;;;;;1999.90;999.90;;;4.30;99.90;;;;;;5054891;28;20409;-68
2021/11/09 06:30:18;;;;;;;1999.90;999.90;;;4.30;99.90;;;;;;5054677;28;20229;-68
2021/11/09 06:32:43;;;;;;;1999.90;999.90;;;4.30;99.90;;;;;;5054861;28;20422;-68
2021/11/09 06:35:10;;;;;;;1999.90;999.90;;;4.30;99.90;;;;;;5054751;28;20441;-68
2021/11/09 06:37:35;;;;;;;1999.90;999.90;;;4.30;99.90;;;;;;5054761;28;20164;-68
2021/11/09 06:40:06;;;;;;;1999.90;999.90;;;4.30;99.90;;;;;;5054288;28;21097;-69
2021/11/09 06:42:32;;;;;;;1999.90;999.90;;;4.30;99.90;;;;;;5054680;28;20172;-68
2021/11/09 06:44:57;;;;;;;1999.90;999.90;;;4.30;99.90;;;;;;5053408;28;20432;-68
2021/11/09 06:47:23;;;;;;;1999.90;999.90;;;4.30;99.90;;;;;;5054632;28;20767;-68
2021/11/09 06:49:49;;;;;;;1999.90;999.90;;;4.40;99.90;;;;;;5054311;28;20237;-68
2021/11/09 06:52:15;;;;;;;1999.90;999.90;;;4.30;99.90;;;;;;5054482;28;20579;-68
2021/11/09 06:54:41;;;;;;;1999.90;999.90;;;4.30;99.90;;;;;;5054396;28;20207;-68
2021/11/09 06:57:07;;;;;;;1999.90;999.90;;;4.40;99.90;;;;;;5054400;28;20588;-68
2021/11/09 06:59:32;;;;;;;1999.90;999.90;;;4.50;99.90;;;;;;5054092;28;20509;-68
2021/11/09 07:01:58;;;;;;;1999.90;999.90;;;4.50;99.90;;;;;;5054414;28;20172;-68
2021/11/09 07:04:24;;;;;;;1999.90;999.90;;;4.50;99.90;;;;;;5054335;28;20179;-68
2021/11/09 07:06:50;;;;;;;1999.90;999.90;;;4.60;99.90;;;;;;5054279;28;20410;-68
2021/11/09 07:09:17;;;;;;;1999.90;999.90;;;4.60;99.90;;;;;;5053725;28;20218;-68
2021/11/09 07:11:43;;;;;;;1999.90;999.90;;;4.70;99.90;;;;;;5054167;28;20418;-68
2021/11/09 07:14:09;;;;;;;1999.90;999.90;;;4.60;99.90;;;;;;5053959;28;20411;-68
2021/11/09 07:16:36;;;;;;;1999.90;999.90;;;4.60;99.90;;;;;;5054034;28;20168;-68
2021/11/09 07:19:03;;;;;;;1999.90;999.90;;;4.60;99.90;;;;;;5053855;28;20460;-68
2021/11/09 07:21:30;;;;;;;1999.90;999.90;;;4.60;99.90;;;;;;5053995;28;20633;-68
2021/11/09 07:23:56;;;;;;;1999.90;999.90;;;4.70;99.90;;;;;;5053867;28;20402;-68
2021/11/09 07:26:23;;;;;;;1999.90;999.90;;;4.70;99.90;;;;;;5053904;28;20552;-68
2021/11/09 07:28:49;;;;;;;1999.90;999.90;;;4.70;99.90;;;;;;5053778;28;20475;-69
2021/11/09 07:31:16;;;;;;;1999.90;999.90;;;4.70;99.90;;;;;;5052753;28;20402;-68
2021/11/09 07:33:42;;;;;;;1999.90;999.90;;;4.80;99.90;;;;;;5053831;28;20429;-68
2021/11/09 07:36:08;;;;;;;1999.90;999.90;;;4.90;99.90;;;;;;5053360;28;20519;-68
2021/11/09 07:38:34;;;;;;;1999.90;999.90;;;5.00;99.90;;;;;;5052588;28;20191;-68
2021/11/09 07:40:59;;;;;;;1999.90;999.90;;;5.10;99.90;;;;;;5052823;28;20255;-68
2021/11/09 07:43:25;;;;;;;1999.90;999.90;;;5.30;99.90;;;;;;5052293;28;20446;-68
2021/11/09 07:45:51;;;;;;;1999.90;999.90;;;5.40;99.90;;;;;;5053544;28;20171;-68
2021/11/09 07:48:17;;;;;;;1999.90;999.90;;;5.40;99.90;;;;;;5053403;28;20194;-68
2021/11/09 07:50:42;;;;;;;1999.90;999.90;;;5.40;99.90;;;;;;5053454;28;20172;-68
2021/11/09 07:53:13;;;;;;;1999.90;999.90;;;5.40;99.90;;;;;;5053446;28;20179;-69
2021/11/09 07:55:44;;;;;;;1999.90;999.90;;;5.50;99.90;;;;;;5053354;28;20278;-69
2021/11/09 07:58:14;;;;;;;1999.90;999.90;;;5.50;99.90;;;;;;5053197;28;20429;-69
2021/11/09 08:00:41;;;;;;;1999.90;999.90;;;5.60;99.90;;;;;;5053059;28;20447;-69
2021/11/09 08:05:44;;;;;;;1999.90;999.90;;;5.70;99.90;;;;;;5053462;28;20895;-69
2021/11/09 08:08:14;;;;;;;1999.90;999.90;;;5.80;99.90;;;;;;5052944;28;21133;-69
2021/11/09 08:10:41;;;;;;;1999.90;999.90;;;5.80;99.90;;;;;;5052900;28;20399;-69
2021/11/09 08:13:06;;;;;;;1999.90;999.90;;;5.80;99.90;;;;;;5053012;28;20406;-69
2021/11/09 08:15:33;;;;;;;1999.90;999.90;;;5.90;99.90;;;;;;5052939;28;20452;-69
2021/11/09 08:17:58;;;;;;;1999.90;999.90;;;5.90;99.90;;;;;;5052815;28;20221;-69
2021/11/09 08:20:24;;;;;;;1999.90;999.90;;;6.00;99.90;;;;;;5052666;28;20402;-69
2021/11/09 08:22:49;;;;;;;1999.90;999.90;;;6.10;99.90;;;;;;5052812;28;20295;-69
2021/11/09 08:25:15;;;;;;;1999.90;999.90;;;6.10;99.90;;;;;;5052782;28;20174;-68
2021/11/09 08:27:41;;;;;;;1999.90;999.90;;;6.20;99.90;;;;;;5052855;28;20271;-70
2021/11/09 08:30:07;;;;;;;1999.90;999.90;;;6.20;99.90;;;;;;5052430;28;20483;-69
2021/11/09 08:32:33;;;;;;;1999.90;999.90;;;6.30;99.90;;;;;;5052682;28;20168;-69
2021/11/09 08:34:59;;;;;;;1999.90;999.90;;;6.40;99.90;;;;;;5051435;28;20461;-69
2021/11/09 08:37:24;;;;;;;1999.90;999.90;;;6.40;99.90;;;;;;5052595;28;20626;-69
2021/11/09 08:39:50;;;;;;;1999.90;999.90;;;6.40;99.90;;;;;;5052239;28;20293;-70
2021/11/09 08:42:27;;;;;;;1999.90;999.90;;;6.50;99.90;;;;;;5052385;28;20259;-69
2021/11/09 08:45:21;;;;;;;1999.90;999.90;;;6.60;99.90;;;;;;5052475;28;20254;-69
2021/11/09 08:47:52;;;;;;;1999.90;999.90;;;6.70;99.90;;;;;;5052306;28;20785;-69
2021/11/09 08:50:18;;;;;;;1999.90;999.90;;;6.90;99.90;;;;;;5052076;28;20758;-69
2021/11/09 08:52:45;;;;;;;1999.90;999.90;;;7.10;99.90;;;;;;5052400;28;20418;-69
2021/11/09 08:58:14;;;;;;;1999.90;999.90;;;7.20;99.90;;;;;;5052257;28;20651;-69
2021/11/09 09:06:08;;;;;;;1999.90;999.90;;;7.30;99.90;;;;;;5052158;28;20452;-69
2021/11/09 09:08:34;;;;;;;1999.90;999.90;;;7.40;99.90;;;;;;5051910;28;20446;-69
2021/11/09 09:11:01;;;;;;;1999.90;999.90;;;7.50;99.90;;;;;;5051863;28;20246;-69
2021/11/09 09:13:26;;;;;;;1999.90;999.90;;;7.60;99.90;;;;;;5052056;28;20412;-69
2021/11/09 09:15:53;;;;;;;1999.90;999.90;;;7.70;99.90;;;;;;5051887;28;20442;-69
2021/11/09 09:18:19;;;;;;;1999.90;999.90;;;7.90;99.90;;;;;;5052227;28;20188;-69
2021/11/09 09:20:54;;;;;;;1999.90;999.90;;;8.00;99.90;;;;;;5051884;28;20906;-69
2021/11/09 09:23:28;;;;;;;1999.90;999.90;;;8.10;99.90;;;;;;5051908;28;20420;-68
2021/11/09 09:28:48;;;;;;;1999.90;999.90;;;8.30;99.90;;;;;;5052120;28;20433;-69
2021/11/09 09:54:06;;;;;;;1999.90;999.90;;;9.80;99.90;;;;;;5051315;28;20424;-70
2021/11/09 09:56:05;;;;;;;1999.90;999.90;;;10.00;99.90;;;;;;5036724;28;20494;-68
2021/11/09 09:58:31;;;;;;;1999.90;999.90;;;10.20;99.90;;;;;;5053628;28;20941;-70
2021/11/09 10:00:58;;;;;;;1999.90;999.90;;;10.30;99.90;;;;;;5052896;28;20469;-68
2021/11/09 10:03:39;;;;;;;1999.90;999.90;;;10.50;99.90;;;;;;5053643;28;20181;-68
2021/11/09 10:06:09;;;;;;;1999.90;999.90;;;10.60;99.90;;;;;;5053551;28;20908;-68
2021/11/09 10:08:47;;;;;;;1999.90;999.90;;;10.80;99.90;;;;;;5052778;28;21294;-69
2021/11/09 10:11:36;;;;;;;1999.90;999.90;;;10.90;99.90;;;;;;5053328;28;20493;-70
2021/11/09 10:14:07;;;;;;;1999.90;999.90;;;11.00;99.90;;;;;;5053724;28;20401;-70
2021/11/09 10:16:38;;;;;;;1999.90;999.90;;;11.20;99.90;;;;;;5052733;28;20775;-70
2021/11/09 10:19:04;;;;;;;1999.90;999.90;;;11.30;99.90;;;;;;5052873;28;20563;-70
2021/11/09 10:21:39;;;;;;;1999.90;999.90;;;11.40;99.90;;;;;;5053196;28;20409;-68
2021/11/09 10:24:29;;;;;;;1999.90;999.90;;;11.50;99.90;;;;;;5052812;28;20920;-68
2021/11/09 10:27:09;;;;;;;1999.90;999.90;;;11.60;99.90;;;;;;5052984;28;20426;-68
2021/11/09 10:29:42;;;;;;;1999.90;999.90;;;11.60;99.90;;;;;;5053019;28;20822;-70
2021/11/09 10:32:18;;;;;;;1999.90;999.90;;;11.70;99.90;;;;;;5052720;28;20859;-70
2021/11/09 10:34:46;;;;;;;1999.90;999.90;;;11.80;99.90;;;;;;5052980;28;20489;-70
2021/11/09 10:37:22;;;;;;;1999.90;999.90;;;11.90;99.90;;;;;;5053309;28;20509;-69
2021/11/09 10:39:49;;;;;;;1999.90;999.90;;;12.00;99.90;;;;;;5052183;28;20515;-69
2021/11/09 10:42:18;;;;;;;1999.90;999.90;;;12.30;99.90;;;;;;5053092;28;20467;-69
2021/11/09 10:44:51;;;;;;;1999.90;999.90;;;12.40;99.90;;;;;;5052740;28;20422;-69
2021/11/09 10:47:30;;;;;;;1999.90;999.90;;;12.50;99.90;;;;;;5052140;28;20434;-70
2021/11/09 10:49:59;;;;;;;1999.90;999.90;;;12.60;99.90;;;;;;5052220;28;20484;-69
2021/11/09 10:52:39;;;;;;;1999.90;999.90;;;12.80;99.90;;;;;;5051773;28;20403;-70
2021/11/09 10:55:30;;;;;;;1999.90;999.90;;;12.80;99.90;;;;;;5051482;28;20859;-70
2021/11/09 10:58:17;;;;;;;1999.90;999.90;;;13.00;99.90;;;;;;5052496;28;20411;-69
2021/11/09 11:06:30;;;;;;;1999.90;999.90;;;13.20;99.90;;;;;;5052365;28;20414;-71
2021/11/09 11:08:58;;;;;;;1999.90;999.90;;;13.30;99.90;;;;;;5053031;28;20445;-69
2021/11/09 11:11:32;;;;;;;1999.90;999.90;;;13.60;99.90;;;;;;5053252;28;20954;-69
2021/11/09 11:14:07;;;;;;;1999.90;999.90;;;14.10;99.90;;;;;;5053498;28;20425;-69
2021/11/09 11:16:44;;;;;;;1999.90;999.90;;;14.80;99.90;;;;;;5052974;28;20415;-70
2021/11/09 11:19:16;;;;;;;1999.90;999.90;;;15.40;99.90;;;;;;5053220;28;20415;-69
2021/11/09 11:21:43;;;;;;;1999.90;999.90;;;16.00;99.90;;;;;;5053072;28;20438;-69
2021/11/09 11:24:10;;;;;;;1999.90;999.90;;;16.60;99.90;;;;;;5052572;28;20432;-72
2021/11/09 11:26:37;;;;;;;1999.90;999.90;;;17.10;99.90;;;;;;5052914;28;20403;-69
2021/11/09 11:29:05;;;;;;;1999.90;999.90;;;17.70;99.90;;;;;;5052969;28;20433;-70
2021/11/09 11:31:30;;;;;;;1999.90;999.90;;;18.10;99.90;;;;;;5052884;28;20466;-69
2021/11/09 11:33:56;;;;;;;1999.90;999.90;;;18.30;99.90;;;;;;5053094;28;20502;-69
2021/11/09 11:36:23;;;;;;;1999.90;999.90;;;18.60;99.90;;;;;;5052949;28;20199;-69
2021/11/09 11:38:52;;;;;;;1999.90;999.90;;;19.00;99.90;;;;;;5051492;28;20930;-69
2021/11/09 11:41:21;;;;;;;1999.90;999.90;;;19.30;99.90;;;;;;5052849;28;20859;-69
2021/11/09 11:43:46;;;;;;;1999.90;999.90;;;19.20;99.90;;;;;;5052682;28;20408;-69
2021/11/09 11:46:13;;;;;;;1999.90;999.90;;;19.30;99.90;;;;;;5052735;28;20896;-71
2021/11/09 11:49:01;;;;;;;1999.90;999.90;;;19.30;99.90;;;;;;5052825;28;20592;-68
2021/11/09 11:51:28;;;;;;;1999.90;999.90;;;19.50;99.90;;;;;;5052309;28;20403;-69
2021/11/09 11:53:54;;;;;;;1999.90;999.90;;;19.80;99.90;;;;;;5052411;28;20889;-70
2021/11/09 11:56:43;;;;;;;1999.90;999.90;;;20.00;99.90;;;;;;5052238;28;20459;-70
2021/11/09 11:59:37;;;;;;;1999.90;999.90;;;19.90;98.50;;;;;;5051789;28;20433;-69
2021/11/09 12:02:08;;;;;;;1999.90;999.90;;;19.90;97.20;;;;;;5051382;28;20414;-69
2021/11/09 12:04:49;;;;;;;1999.90;999.90;;;19.90;95.90;;;;;;5051372;28;20405;-69
2021/11/09 12:07:22;;;;;;;1999.90;999.90;;;20.00;97.40;;;;;;5050649;28;20498;-69
2021/11/09 12:09:51;;;;;;;1999.90;999.90;;;20.10;95.10;;;;;;5050971;28;20525;-69
2021/11/09 12:12:20;;;;;;;1999.90;999.90;;;20.20;94.30;;;;;;5051286;28;20409;-69
2021/11/09 12:14:55;;;;;;;1999.90;999.90;;;20.30;94.30;;;;;;5050533;28;20506;-69
2021/11/09 12:17:43;;;;;;;1999.90;999.90;;;20.60;94.30;;;;;;5050652;28;20461;-69
2021/11/09 12:20:38;;;;;;;1999.90;999.90;;;20.60;90.00;;;;;;5050838;28;20429;-69
2021/11/09 12:23:15;;;;;;;1999.90;999.90;;;20.50;89.10;;;;;;5050411;28;20925;-69
2021/11/09 12:25:41;;;;;;;1999.90;999.90;;;20.30;90.60;;;;;;5049917;28;21281;-69
2021/11/09 12:28:13;;;;;;;1999.90;999.90;;;20.30;90.90;;;;;;5050740;28;20431;-69
2021/11/09 12:30:53;;;;;;;1999.90;999.90;;;20.30;86.70;;;;;;5050180;28;20224;-70
2021/11/09 12:33:37;;;;;;;1999.90;999.90;;;20.30;87.50;;;;;;5050738;28;20408;-71
2021/11/09 12:36:03;;;;;;;1999.90;999.90;;;20.20;90.10;;;;;;5050726;28;20457;-71
2021/11/09 12:38:34;;;;;;;1999.90;999.90;;;20.40;90.10;;;;;;5050087;28;21105;-70
2021/11/09 12:41:08;;;;;;;1999.90;999.90;;;20.70;89.30;;;;;;5050556;28;20429;-70
2021/11/09 12:43:51;;;;;;;1999.90;999.90;;;21.30;86.90;;;;;;5050481;28;20406;-71
2021/11/09 12:46:46;;;;;;;1999.90;999.90;;;21.90;80.20;;;;;;5050537;28;20414;-70
2021/11/09 12:49:16;;;;;;;1999.90;999.90;;;22.30;72.20;;;;;;5049621;28;20536;-70
2021/11/09 12:51:47;;;;;;;1999.90;999.90;;;22.10;69.50;;;;;;5049885;28;20410;-70
2021/11/09 12:54:18;;;;;;;1999.90;999.90;;;21.90;67.90;;;;;;5050394;28;20402;-70
2021/11/09 12:56:47;;;;;;;1999.90;999.90;;;21.60;70.90;;;;;;5050214;28;20496;-69
2021/11/09 12:59:28;;;;;;;1999.90;999.90;;;21.90;72.30;;;;;;5049943;28;20429;-70
2021/11/09 13:04:44;;;;;;;1999.90;999.90;;;22.20;66.60;;;;;;5050291;28;20402;-70
2021/11/09 13:07:33;;;;;;;1999.90;999.90;;;22.40;63.90;;;;;;5048917;28;20403;-69
2021/11/09 13:10:11;;;;;;;1999.90;999.90;;;22.50;63.40;;;;;;5048893;28;20807;-70
2021/11/09 13:12:38;;;;;;;1999.90;999.90;;;22.30;57.70;;;;;;5050645;28;20410;-70
2021/11/09 13:15:08;;;;;;;1999.90;999.90;;;21.90;57.50;;;;;;5050071;28;20957;-70
2021/11/09 13:17:40;;;;;;;1999.90;999.90;;;22.10;58.70;;;;;;5050361;28;20401;-70
2021/11/09 13:20:22;;;;;;;1999.90;999.90;;;22.50;63.30;;;;;;5050301;28;20440;-70
2021/11/09 13:23:00;;;;;;;1999.90;999.90;;;23.40;58.60;;;;;;5050170;28;20415;-70
2021/11/09 13:25:40;;;;;;;1999.90;999.90;;;23.90;56.10;;;;;;5050541;28;20386;-71
2021/11/09 13:28:34;;;;;;;1999.90;999.90;;;24.50;54.20;;;;;;5049995;28;20993;-70
2021/11/09 13:31:10;;;;;;;1999.90;999.90;;;24.90;49.00;;;;;;5049657;28;20380;-70
2021/11/09 13:33:39;;;;;;;1999.90;999.90;;;24.70;49.20;;;;;;5050713;28;20378;-70
2021/11/09 13:36:06;;;;;;;1999.90;999.90;;;24.60;46.20;;;;;;5049893;28;20460;-70
2021/11/09 13:38:39;;;;;;;1999.90;999.90;;;24.60;48.00;;;;;;5050332;28;20403;-71
2021/11/09 13:41:18;;;;;;;1999.90;999.90;;;24.30;47.60;;;;;;5050495;28;20474;-71
2021/11/09 13:43:56;;;;;;;1999.90;999.90;;;24.30;44.60;;;;;;5050035;28;20393;-70
2021/11/09 13:46:28;;;;;;;1999.90;999.90;;;24.10;45.00;;;;;;5050489;28;20418;-70
2021/11/09 13:48:56;;;;;;;1999.90;999.90;;;24.40;46.50;;;;;;5050333;28;20499;-70
2021/11/09 13:51:25;;;;;;;1999.90;999.90;;;24.50;44.20;;;;;;5049766;28;20384;-70
2021/11/09 13:54:07;;;;;;;1999.90;999.90;;;24.70;44.80;;;;;;5050494;28;20978;-70
2021/11/09 13:56:34;;;;;;;1999.90;999.90;;;24.90;45.30;;;;;;5050050;28;20441;-70
2021/11/09 13:59:10;;;;;;;1999.90;999.90;;;25.30;43.90;;;;;;5049853;28;20426;-70
2021/11/09 14:15:11;;;;;;;1999.90;999.90;;;26.50;39.00;;;;;;5049821;28;21085;-70
2021/11/09 14:17:38;;;;;;;1999.90;999.90;;;26.50;38.70;;;;;;5048932;28;20233;-70
2021/11/09 14:20:23;;;;;;;1999.90;999.90;;;26.50;37.60;;;;;;5049291;28;20430;-70
2021/11/09 14:23:03;;;;;;;1999.90;999.90;;;26.80;37.60;;;;;;5050127;28;20767;-70
2021/11/09 14:25:30;;;;;;;1999.90;999.90;;;27.00;36.20;;;;;;5050221;28;20735;-70
2021/11/09 14:27:56;;;;;;;1999.90;999.90;;;27.00;35.50;;;;;;5049278;28;20413;-70
2021/11/09 14:30:24;;;;;;;1999.90;999.90;;;26.60;35.20;;;;;;5049620;28;20427;-69
2021/11/09 14:32:50;;;;;;;1999.90;999.90;;;26.60;36.20;;;;;;5049843;28;20254;-70
2021/11/09 14:35:23;;;;;;;1999.90;999.90;;;26.60;36.70;;;;;;5049528;28;21124;-70
2021/11/09 14:37:57;;;;;;;1999.90;999.90;;;26.70;35.80;;;;;;5049732;28;20382;-70
2021/11/09 14:40:33;;;;;;;1999.90;999.90;;;26.40;36.30;;;;;;5049972;28;20410;-70
2021/11/09 14:43:14;;;;;;;1999.90;999.90;;;26.30;35.50;;;;;;5053045;28;20384;-69
2021/11/09 14:45:48;;;;;;;1999.90;999.90;;;26.20;36.10;;;;;;5053370;28;20402;-68
2021/11/09 14:48:29;;;;;;;1999.90;999.90;;;26.20;35.60;;;;;;5053279;28;21090;-69
2021/11/09 14:56:23;;;;;;;1999.90;999.90;;;25.70;36.70;;;;;;5053422;28;20487;-70